Time;durP1;ratioP1;P1;durP2;ratioP2;P2;SDS_P1;SDS_P2;PMS_P1;PMS_P2;Temp;Humidity;BMP_temperature;BMP_pressure;BME280_temperature;BME280_humidity;BME280_pressure;Samples;Min_cycle;Max_cycle;Signal;HPM_P1;HPM_P2
2022/08/15 00:00:44;;;;;;;11.38;10.13;;;;;;;23.31;57.19;100214.25;5031519;28;20136;-71
2022/08/15 00:03:24;;;;;;;13.77;9.68;;;;;;;23.27;56.20;100208.34;5028383;28;20068;-71
2022/08/15 00:05:50;;;;;;;13.68;9.95;;;;;;;23.26;56.54;100205.84;5031688;28;20513;-71
2022/08/15 00:08:17;;;;;;;16.45;10.50;;;;;;;23.22;57.11;100213.25;5030397;28;20037;-71
2022/08/15 00:10:44;;;;;;;12.75;10.10;;;;;;;23.19;57.91;100212.66;5032675;28;20358;-71
2022/08/15 00:13:14;;;;;;;11.07;9.88;;;;;;;23.11;57.82;100222.13;5034711;28;20029;-70
2022/08/15 00:15:40;;;;;;;12.63;10.38;;;;;;;23.07;57.89;100215.38;5034796;28;20037;-71
2022/08/15 00:18:06;;;;;;;11.15;10.05;;;;;;;23.06;58.37;100215.53;5031399;28;20028;-71
2022/08/15 00:20:32;;;;;;;11.10;9.88;;;;;;;22.99;58.48;100209.91;5034107;28;20041;-71
2022/08/15 00:22:58;;;;;;;11.73;10.55;;;;;;;23.01;58.99;100221.22;5034712;28;20465;-70
2022/08/15 00:25:23;;;;;;;14.93;10.48;;;;;;;22.95;58.83;100219.09;5033330;28;20104;-71
2022/08/15 00:27:49;;;;;;;11.55;10.35;;;;;;;22.88;58.69;100220.56;5034377;28;20052;-71
2022/08/15 00:30:14;;;;;;;11.30;10.10;;;;;;;22.88;59.16;100224.03;5034602;28;20039;-70
2022/08/15 00:32:40;;;;;;;13.48;10.10;;;;;;;22.84;59.20;100221.78;5034687;28;20025;-71
2022/08/15 00:35:35;;;;;;;11.35;10.20;;;;;;;22.82;60.10;100213.09;5034906;28;20030;-71
2022/08/15 00:37:55;;;;;;;11.43;10.30;;;;;;;22.71;60.28;100216.66;5029209;28;20022;-71
2022/08/15 00:40:23;;;;;;;11.13;10.02;;;;;;;22.63;59.85;100208.50;5033915;28;20132;-71
2022/08/15 00:42:49;;;;;;;12.23;10.63;;;;;;;22.56;59.48;100216.16;5034428;28;20434;-70
2022/08/15 00:45:14;;;;;;;11.00;9.88;;;;;;;22.61;59.92;100219.25;5033375;28;20049;-71
2022/08/15 00:47:42;;;;;;;13.38;10.00;;;;;;;22.49;59.45;100212.31;5032227;28;20477;-70
2022/08/15 00:50:12;;;;;;;11.18;9.98;;;;;;;22.56;59.38;100221.47;5032633;28;20025;-70
2022/08/15 00:52:37;;;;;;;9.38;8.48;;;;;;;22.58;57.08;100226.63;5033538;28;20032;-71
2022/08/15 00:55:16;;;;;;;9.15;8.27;;;;;;;22.58;57.20;100224.81;5034522;28;20373;-70
2022/08/15 00:57:45;;;;;;;10.85;8.30;;;;;;;22.55;55.62;100227.72;5033512;28;20080;-71
2022/08/15 01:00:21;;;;;;;10.90;8.20;;;;;;;22.54;56.16;100236.69;5033115;28;20044;-71
2022/08/15 01:02:48;;;;;;;9.98;7.60;;;;;;;22.53;54.87;100227.03;5034195;28;20029;-70
2022/08/15 01:05:15;;;;;;;9.88;6.97;;;;;;;22.57;55.19;100227.63;5033708;28;20112;-71
2022/08/15 01:07:43;;;;;;;8.13;6.47;;;;;;;22.56;54.50;100229.44;5030557;28;20052;-70
2022/08/15 01:10:10;;;;;;;9.88;6.45;;;;;;;22.54;55.10;100217.25;5033379;28;20124;-71
2022/08/15 01:12:37;;;;;;;10.02;6.78;;;;;;;22.58;54.46;100219.50;5031796;28;20043;-71
2022/08/15 01:15:08;;;;;;;12.65;6.50;;;;;;;22.56;54.66;100216.16;5033410;28;20029;-70
2022/08/15 01:17:33;;;;;;;7.15;5.78;;;;;;;22.53;53.20;100220.84;5033414;28;20017;-70
2022/08/15 01:20:07;;;;;;;6.38;5.65;;;;;;;22.46;52.63;100225.84;5031595;28;20499;-71
2022/08/15 01:22:35;;;;;;;8.48;5.55;;;;;;;22.40;50.70;100221.06;5032595;28;20105;-71
2022/08/15 01:25:08;;;;;;;6.22;4.95;;;;;;;22.40;51.05;100227.22;5033109;28;20057;-71
2022/08/15 01:27:41;;;;;;;5.57;4.93;;;;;;;22.34;52.75;100217.09;5030201;28;20492;-71
2022/08/15 01:30:11;;;;;;;6.88;4.93;;;;;;;22.26;51.78;100205.41;5033641;28;20025;-71
2022/08/15 01:32:36;;;;;;;5.95;5.40;;;;;;;22.23;51.50;100211.81;5032181;28;20120;-70
2022/08/15 01:35:03;;;;;;;12.40;4.88;;;;;;;22.13;50.67;100219.66;5033441;28;20017;-71
2022/08/15 01:37:29;;;;;;;5.70;4.68;;;;;;;22.09;50.87;100217.38;5031632;28;20017;-71
2022/08/15 01:40:02;;;;;;;6.72;4.82;;;;;;;22.05;51.38;100227.41;5046298;28;20029;-71
2022/08/15 01:42:34;;;;;;;6.10;4.32;;;;;;;21.99;50.65;100217.28;5033702;28;20475;-71
2022/08/15 01:45:09;;;;;;;4.75;4.20;;;;;;;21.88;50.57;100218.16;5033392;28;20288;-71
2022/08/15 01:47:52;;;;;;;8.25;4.43;;;;;;;21.86;51.38;100230.69;5030513;28;20025;-71
2022/08/15 01:50:27;;;;;;;6.05;4.38;;;;;;;21.72;50.95;100225.66;5035912;28;20126;-71
2022/08/15 01:53:32;;;;;;;5.20;4.03;;;;;;;21.78;51.16;100224.31;5031430;28;20265;-70
2022/08/15 01:56:05;;;;;;;5.47;4.18;;;;;;;21.67;51.08;100227.81;4993178;28;20120;-71
2022/08/15 01:58:35;;;;;;;4.93;4.43;;;;;;;21.64;50.88;100220.09;5030207;28;20554;-71
2022/08/15 02:01:13;;;;;;;6.25;3.88;;;;;;;21.63;50.82;100218.44;5032057;28;20180;-71
2022/08/15 02:03:41;;;;;;;7.57;4.40;;;;;;;21.54;50.90;100214.69;5031693;28;20420;-70
2022/08/15 02:06:14;;;;;;;5.53;3.97;;;;;;;21.52;51.04;100224.59;5033015;28;20059;-71
2022/08/15 02:08:43;;;;;;;5.05;4.10;;;;;;;21.50;51.50;100232.66;5032258;28;20394;-70
2022/08/15 02:11:12;;;;;;;8.85;4.15;;;;;;;21.45;51.65;100233.97;5032340;28;20022;-71
2022/08/15 02:13:38;;;;;;;6.05;4.07;;;;;;;21.43;51.43;100222.66;5032356;28;20056;-70
2022/08/15 02:16:04;;;;;;;5.80;3.90;;;;;;;21.44;51.74;100225.19;5032809;28;20045;-70
2022/08/15 02:18:29;;;;;;;7.65;4.32;;;;;;;21.41;51.80;100228.06;5028543;28;20523;-71
2022/08/15 02:20:57;;;;;;;8.15;4.00;;;;;;;21.39;52.11;100235.31;5031076;28;20028;-71
2022/08/15 02:23:23;;;;;;;6.53;4.18;;;;;;;21.37;51.36;100220.50;5031206;28;20397;-71
2022/08/15 02:25:50;;;;;;;5.75;4.15;;;;;;;21.38;51.20;100224.81;5032610;28;20029;-71
2022/08/15 02:28:15;;;;;;;6.75;4.13;;;;;;;21.37;51.88;100225.78;5029575;28;20025;-71
2022/08/15 02:30:42;;;;;;;5.82;4.15;;;;;;;21.32;51.31;100220.84;5031917;28;20036;-70
2022/08/15 02:33:07;;;;;;;5.03;4.28;;;;;;;21.30;51.70;100222.75;5032195;28;20028;-71
2022/08/15 02:35:33;;;;;;;7.82;4.32;;;;;;;21.31;51.58;100221.78;5031726;28;20026;-71
2022/08/15 02:38:01;;;;;;;7.10;4.40;;;;;;;21.28;52.07;100225.50;5031041;28;20045;-71
2022/08/15 02:40:27;;;;;;;8.98;3.97;;;;;;;21.19;51.83;100230.66;5032236;28;20087;-71
2022/08/15 02:42:53;;;;;;;6.35;4.25;;;;;;;21.25;52.06;100236.38;5031322;28;20486;-71
2022/08/15 02:45:18;;;;;;;5.88;4.20;;;;;;;21.26;51.84;100234.56;5029476;28;20147;-71
2022/08/15 02:47:43;;;;;;;8.10;4.13;;;;;;;21.24;51.60;100232.00;5031661;28;20029;-71
2022/08/15 02:50:11;;;;;;;4.97;4.03;;;;;;;21.26;51.49;100238.06;5032479;28;20025;-70
2022/08/15 02:52:48;;;;;;;7.25;3.88;;;;;;;21.26;51.30;100234.56;5030732;28;20021;-71
2022/08/15 02:55:13;;;;;;;6.47;3.97;;;;;;;21.34;52.51;100239.25;5032096;28;20466;-70
2022/08/15 02:57:39;;;;;;;5.07;4.10;;;;;;;21.30;52.06;100227.22;5026260;28;20044;-70
2022/08/15 03:00:09;;;;;;;7.95;3.95;;;;;;;21.28;52.83;100230.81;5028804;28;20103;-71
2022/08/15 03:02:59;;;;;;;6.55;3.83;;;;;;;21.30;51.75;100227.22;5029596;28;20033;-71
2022/08/15 03:05:27;;;;;;;6.43;3.65;;;;;;;21.19;51.94;100239.50;5031557;28;20385;-70
2022/08/15 03:07:53;;;;;;;5.47;3.97;;;;;;;21.10;52.18;100239.34;5030943;28;20354;-70
2022/08/15 03:10:19;;;;;;;7.18;4.28;;;;;;;21.09;52.73;100241.16;5031041;28;20036;-71
2022/08/15 03:12:56;;;;;;;4.90;4.25;;;;;;;21.06;52.53;100241.41;5031364;28;20029;-71
2022/08/15 03:15:31;;;;;;;7.43;3.80;;;;;;;21.00;52.91;100245.34;5031416;28;20380;-70
2022/08/15 03:17:58;;;;;;;8.23;5.15;;;;;;;20.98;52.53;100231.38;5029286;28;20432;-70
2022/08/15 03:20:23;;;;;;;5.43;4.28;;;;;;;20.93;53.07;100236.19;5030162;28;20037;-71
2022/08/15 03:22:50;;;;;;;5.60;4.43;;;;;;;20.97;54.20;100231.50;5032324;28;20021;-71
2022/08/15 03:25:17;;;;;;;9.45;4.13;;;;;;;20.90;52.84;100231.13;5031772;28;20071;-71
2022/08/15 03:27:43;;;;;;;6.35;4.40;;;;;;;20.87;53.18;100234.00;5028560;28;20025;-70
2022/08/15 03:30:10;;;;;;;5.60;4.60;;;;;;;20.80;53.18;100238.09;5032403;28;20033;-70
2022/08/15 03:32:54;;;;;;;4.93;4.43;;;;;;;20.76;53.35;100236.59;5031611;28;20041;-70
2022/08/15 03:35:23;;;;;;;6.82;4.50;;;;;;;20.70;53.72;100237.94;5027001;28;20554;-70
2022/08/15 03:37:49;;;;;;;9.07;4.85;;;;;;;20.69;54.37;100230.94;5031476;28;20049;-71
2022/08/15 03:40:14;;;;;;;8.32;4.43;;;;;;;20.64;54.41;100232.25;5031406;28;20500;-71
2022/08/15 03:42:54;;;;;;;10.25;5.03;;;;;;;20.58;54.13;100241.50;5030262;28;20481;-71
2022/08/15 03:45:20;;;;;;;5.82;4.90;;;;;;;20.51;55.10;100241.13;5031307;28;20034;-71
2022/08/15 03:47:46;;;;;;;5.95;4.75;;;;;;;20.42;55.03;100241.75;5032788;28;20025;-70
2022/08/15 03:50:12;;;;;;;8.65;4.60;;;;;;;20.39;55.20;100243.78;5035596;28;20057;-71
2022/08/15 03:52:58;;;;;;;5.10;4.57;;;;;;;20.39;55.25;100249.09;5034651;28;20457;-71
2022/08/15 03:55:25;;;;;;;7.32;4.55;;;;;;;20.32;55.93;100246.88;5031036;28;20456;-70
2022/08/15 03:57:52;;;;;;;6.78;4.80;;;;;;;20.36;56.30;100250.16;5032652;28;20104;-71
2022/08/15 04:00:21;;;;;;;8.20;4.82;;;;;;;20.37;56.33;100251.00;5034818;28;20412;-71
2022/08/15 04:02:46;;;;;;;6.72;5.20;;;;;;;20.39;55.64;100246.44;5032298;28;20087;-70
2022/08/15 04:05:12;;;;;;;8.63;5.40;;;;;;;20.38;55.56;100242.13;5033275;28;20037;-70
2022/08/15 04:07:37;;;;;;;6.78;5.13;;;;;;;20.41;55.95;100241.88;5034357;28;20027;-70
2022/08/15 04:10:06;;;;;;;7.60;5.00;;;;;;;20.43;56.33;100232.00;5034509;28;20438;-70
2022/08/15 04:12:37;;;;;;;12.90;5.28;;;;;;;20.39;56.30;100235.84;5032645;28;20149;-70
2022/08/15 04:15:04;;;;;;;10.35;5.00;;;;;;;20.37;57.16;100232.47;5035388;28;20029;-71
2022/08/15 04:17:29;;;;;;;7.13;4.50;;;;;;;20.35;56.98;100236.06;5032067;28;20029;-70
2022/08/15 04:19:54;;;;;;;8.50;5.30;;;;;;;20.37;57.93;100233.28;5034765;28;20025;-71
2022/08/15 04:22:31;;;;;;;7.47;4.55;;;;;;;20.39;57.73;100241.97;5032386;28;20042;-70
2022/08/15 04:25:04;;;;;;;9.70;4.93;;;;;;;20.41;57.92;100241.88;5033724;28;20404;-70
2022/08/15 04:27:30;;;;;;;9.95;5.00;;;;;;;20.48;58.18;100248.41;5033498;28;20021;-71
2022/08/15 04:29:55;;;;;;;7.65;4.68;;;;;;;20.45;58.66;100240.69;5033079;28;20477;-70
2022/08/15 04:32:25;;;;;;;9.55;5.20;;;;;;;20.50;58.34;100251.78;5032148;28;20052;-70
2022/08/15 04:34:51;;;;;;;6.85;4.55;;;;;;;20.50;59.29;100249.13;5036442;28;20033;-71
2022/08/15 04:37:16;;;;;;;9.05;5.30;;;;;;;20.52;58.98;100247.25;5032626;28;20531;-70
2022/08/15 04:39:41;;;;;;;11.82;5.28;;;;;;;20.51;59.48;100250.88;5034351;28;20025;-70
2022/08/15 04:42:07;;;;;;;7.15;4.90;;;;;;;20.50;59.60;100251.78;5033212;28;20040;-70
2022/08/15 04:44:32;;;;;;;13.65;4.88;;;;;;;20.51;60.24;100248.22;5031586;28;20041;-70
2022/08/15 04:46:57;;;;;;;7.20;4.78;;;;;;;20.53;60.62;100249.75;5033319;28;20025;-70
2022/08/15 04:49:23;;;;;;;10.90;5.10;;;;;;;20.59;60.53;100251.13;5033404;28;20112;-70
2022/08/15 04:51:48;;;;;;;6.43;4.40;;;;;;;20.60;61.04;100236.94;5031125;28;20037;-70
2022/08/15 04:54:13;;;;;;;8.40;4.53;;;;;;;20.74;60.57;100242.03;5040811;28;20116;-70
2022/08/15 04:56:39;;;;;;;9.52;4.70;;;;;;;20.75;60.92;100251.66;5033148;28;20362;-70
2022/08/15 04:59:04;;;;;;;15.05;4.80;;;;;;;20.73;61.01;100242.13;5032008;28;20037;-70
2022/08/15 05:01:29;;;;;;;8.18;4.82;;;;;;;20.74;61.05;100251.78;5033449;28;20022;-70
2022/08/15 05:03:55;;;;;;;7.28;4.57;;;;;;;20.84;60.84;100255.44;5033361;28;20369;-70
2022/08/15 05:06:20;;;;;;;12.80;4.45;;;;;;;20.98;61.40;100254.38;5032637;28;20053;-70
2022/08/15 05:08:45;;;;;;;10.95;4.80;;;;;;;20.99;61.56;100256.06;5033784;28;20540;-70
2022/08/15 05:11:14;;;;;;;7.88;4.97;;;;;;;21.02;61.61;100255.81;5033962;28;20033;-71
2022/08/15 05:13:40;;;;;;;8.90;4.78;;;;;;;21.12;61.88;100254.16;5030823;28;20043;-70
2022/08/15 05:16:07;;;;;;;12.50;5.30;;;;;;;21.04;61.22;100262.69;5034276;28;20537;-70
2022/08/15 05:18:35;;;;;;;8.82;5.10;;;;;;;21.16;61.60;100260.09;5032526;28;20037;-70
2022/08/15 05:21:01;;;;;;;9.13;4.85;;;;;;;21.10;61.79;100269.34;5032074;28;20055;-70
2022/08/15 05:23:26;;;;;;;10.48;5.13;;;;;;;21.11;61.90;100271.03;5032701;28;20029;-70
2022/08/15 05:25:55;;;;;;;8.80;4.53;;;;;;;21.15;61.61;100277.78;5033639;28;20029;-70
2022/08/15 05:28:22;;;;;;;7.25;5.07;;;;;;;21.07;62.94;100293.44;5031657;28;20033;-71
2022/08/15 05:30:49;;;;;;;10.20;5.00;;;;;;;20.95;63.64;100289.91;5033487;28;20018;-70
2022/08/15 05:33:18;;;;;;;8.00;5.60;;;;;;;20.73;65.77;100282.75;5029649;28;20058;-70
2022/08/15 05:35:51;;;;;;;8.48;5.10;;;;;;;20.67;66.14;100287.66;5033501;28;20084;-70
2022/08/15 05:38:21;;;;;;;8.57;5.28;;;;;;;20.75;66.44;100291.41;5032128;28;20079;-70
2022/08/15 05:41:24;;;;;;;8.93;5.18;;;;;;;20.83;64.66;100289.97;5019125;28;20017;-70
2022/08/15 05:44:17;;;;;;;9.10;5.05;;;;;;;20.90;65.05;100286.75;5032080;28;20045;-70
2022/08/15 05:47:20;;;;;;;13.77;5.47;;;;;;;20.95;64.43;100289.06;5033269;28;20121;-70
2022/08/15 05:49:53;;;;;;;8.90;5.00;;;;;;;20.98;64.41;100288.81;5018603;28;20465;-70
2022/08/15 05:52:51;;;;;;;8.57;5.22;;;;;;;21.06;63.49;100294.41;5032576;28;20029;-70
2022/08/15 05:55:25;;;;;;;9.27;4.75;;;;;;;21.13;63.75;100292.13;5030600;28;20025;-70
2022/08/15 05:58:09;;;;;;;6.50;5.00;;;;;;;21.22;62.67;100288.75;5020027;28;20403;-70
2022/08/15 06:00:36;;;;;;;6.05;4.47;;;;;;;21.29;63.95;100279.38;5031764;28;20056;-70
2022/08/15 06:03:09;;;;;;;5.88;4.50;;;;;;;21.34;63.22;100294.94;5030584;28;20036;-70
2022/08/15 06:05:48;;;;;;;7.43;3.95;;;;;;;21.37;63.02;100298.22;5028550;28;20033;-70
2022/08/15 06:08:17;;;;;;;7.50;4.70;;;;;;;21.48;63.56;100306.19;5032266;28;20079;-70
2022/08/15 06:10:49;;;;;;;5.32;4.38;;;;;;;21.55;63.00;100295.09;5032817;28;20028;-70
2022/08/15 06:13:23;;;;;;;6.80;4.53;;;;;;;21.55;63.14;100301.25;5030889;28;20021;-70
2022/08/15 06:16:01;;;;;;;7.07;4.00;;;;;;;21.57;62.76;100299.31;5026771;28;20041;-70
2022/08/15 06:18:29;;;;;;;5.93;4.82;;;;;;;21.56;63.01;100308.25;5031218;28;20028;-71
2022/08/15 06:21:19;;;;;;;7.32;4.55;;;;;;;21.64;63.00;100305.00;5031797;28;20120;-70
2022/08/15 06:24:14;;;;;;;10.73;4.65;;;;;;;21.74;62.80;100304.16;5020938;28;20381;-70
2022/08/15 06:26:46;;;;;;;8.55;5.00;;;;;;;21.87;62.31;100298.72;5022293;28;20033;-70
2022/08/15 06:29:24;;;;;;;9.82;4.47;;;;;;;22.01;62.36;100297.63;5029838;28;20060;-70
2022/08/15 06:31:53;;;;;;;7.35;4.97;;;;;;;22.01;62.11;100288.81;5018152;28;20454;-70
2022/08/15 06:34:27;;;;;;;8.32;4.90;;;;;;;22.07;62.59;100298.94;5031375;28;20034;-70
2022/08/15 06:37:21;;;;;;;6.55;4.78;;;;;;;22.09;62.24;100297.84;5031437;28;20060;-70
2022/08/15 06:39:52;;;;;;;;;;;;;;;22.17;61.21;100300.78;5032631;28;20029;-70
2022/08/15 06:42:17;;;;;;;7.60;4.90;;;;;;;22.10;62.99;100288.91;5031481;28;19920;-71
2022/08/15 06:44:48;;;;;;;7.50;5.07;;;;;;;22.05;62.89;100291.09;5031317;28;20030;-70
2022/08/15 06:47:13;;;;;;;8.82;4.75;;;;;;;22.06;64.29;100298.09;5031669;28;20027;-70
2022/08/15 06:49:42;;;;;;;9.23;5.00;;;;;;;22.04;64.02;100300.03;5026915;28;20029;-70
2022/08/15 06:52:10;;;;;;;6.82;5.00;;;;;;;22.11;63.69;100301.25;5031090;28;20112;-71
2022/08/15 06:54:35;;;;;;;9.05;4.82;;;;;;;22.19;63.26;100306.78;5028538;28;20115;-73
2022/08/15 06:57:03;;;;;;;6.50;4.55;;;;;;;22.33;63.28;100310.13;5030312;28;20030;-72
2022/08/15 06:59:44;;;;;;;8.30;4.80;;;;;;;22.48;62.77;100316.88;5017025;28;20040;-72
2022/08/15 07:02:21;;;;;;;10.05;5.72;;;;;;;22.60;62.38;100305.25;5029469;28;20477;-72
2022/08/15 07:05:05;;;;;;;8.18;5.10;;;;;;;22.78;61.33;100299.38;5031419;28;20028;-72
2022/08/15 07:07:49;;;;;;;7.25;4.97;;;;;;;23.11;60.14;100299.22;5026172;28;20036;-72
2022/08/15 07:10:29;;;;;;;9.05;5.18;;;;;;;23.41;58.98;100292.25;5035699;28;20139;-72
2022/08/15 07:13:14;;;;;;;8.73;5.60;;;;;;;23.52;59.26;100288.69;5028548;28;20029;-72
2022/08/15 07:15:58;;;;;;;8.40;5.43;;;;;;;23.67;58.37;100292.66;5037518;28;20042;-72
2022/08/15 07:18:47;;;;;;;6.85;5.22;;;;;;;23.63;58.76;100295.72;5018456;28;20053;-72
2022/08/15 07:21:18;;;;;;;10.10;5.40;;;;;;;23.49;58.55;100289.78;5031639;28;20041;-72
2022/08/15 07:24:02;;;;;;;8.57;5.45;;;;;;;23.43;58.84;100290.31;5035089;28;20531;-72
2022/08/15 07:26:29;;;;;;;8.25;4.55;;;;;;;23.41;60.18;100291.41;5034080;28;20477;-72
2022/08/15 07:28:58;;;;;;;13.63;5.13;;;;;;;23.43;59.14;100295.63;5033654;28;20040;-72
2022/08/15 07:31:34;;;;;;;7.07;5.45;;;;;;;23.48;58.84;100292.56;5030584;28;20029;-72
2022/08/15 07:34:06;;;;;;;8.93;5.68;;;;;;;23.45;58.98;100283.06;5034693;28;20028;-73
2022/08/15 07:36:34;;;;;;;8.32;5.38;;;;;;;23.45;59.10;100288.38;5035007;28;20026;-72
2022/08/15 07:39:19;;;;;;;8.88;5.82;;;;;;;23.33;58.92;100282.28;5035056;28;20088;-72
2022/08/15 07:41:45;;;;;;;11.95;6.60;;;;;;;23.32;59.58;100288.59;5033382;28;20423;-72
2022/08/15 07:44:25;;;;;;;9.38;5.97;;;;;;;23.37;60.22;100288.19;5035114;28;20037;-72
2022/08/15 07:46:57;;;;;;;8.02;5.53;;;;;;;23.36;60.72;100294.47;5034312;28;20033;-72
2022/08/15 07:49:30;;;;;;;9.52;7.05;;;;;;;23.31;59.87;100289.53;5037220;28;20021;-72
2022/08/15 07:52:03;;;;;;;9.20;5.88;;;;;;;23.34;59.99;100296.41;5033571;28;20111;-73
2022/08/15 07:54:55;;;;;;;9.38;5.95;;;;;;;23.44;59.84;100299.97;5034050;28;20040;-73
2022/08/15 07:57:27;;;;;;;9.70;5.60;;;;;;;23.55;59.58;100299.91;5025810;28;20037;-73
2022/08/15 08:00:11;;;;;;;9.05;6.03;;;;;;;23.66;59.49;100309.59;5024903;28;20068;-73
2022/08/15 08:02:50;;;;;;;8.38;5.68;;;;;;;23.69;59.04;100312.03;5034924;28;20025;-73
2022/08/15 08:05:16;;;;;;;11.27;6.63;;;;;;;23.74;58.57;100308.97;5034165;28;20553;-73
2022/08/15 08:07:45;;;;;;;9.02;5.93;;;;;;;23.91;58.74;100315.50;5038400;28;20021;-73
2022/08/15 08:10:20;;;;;;;12.95;6.20;;;;;;;24.06;58.44;100304.31;5028895;28;20033;-73
2022/08/15 08:13:11;;;;;;;10.38;6.28;;;;;;;24.23;58.43;100313.50;5033361;28;20049;-73
2022/08/15 08:15:50;;;;;;;13.88;6.75;;;;;;;24.37;58.25;100306.94;5031843;28;20033;-73
2022/08/15 08:18:41;;;;;;;13.05;6.57;;;;;;;24.59;57.21;100315.66;5041255;28;20095;-73
2022/08/15 08:21:11;;;;;;;10.80;6.13;;;;;;;24.56;56.42;100314.13;5032062;28;20060;-73
2022/08/15 08:23:45;;;;;;;10.38;5.95;;;;;;;24.62;56.86;100318.03;5023005;28;20482;-73
2022/08/15 08:26:30;;;;;;;11.40;5.70;;;;;;;24.65;56.70;100318.59;5034874;28;20251;-73
2022/08/15 08:29:03;;;;;;;16.15;6.38;;;;;;;24.69;56.79;100319.19;5032385;28;20028;-73
2022/08/15 08:31:28;;;;;;;13.50;5.93;;;;;;;24.65;56.90;100323.94;5031310;28;20040;-73
2022/08/15 08:34:19;;;;;;;8.57;6.22;;;;;;;24.61;56.54;100319.88;5034135;28;20030;-73
2022/08/15 08:37:07;;;;;;;15.35;5.80;;;;;;;24.64;57.16;100326.75;5033549;28;20134;-73
2022/08/15 08:41:24;;;;;;;11.80;6.20;;;;;;;24.61;56.52;100322.53;5032389;28;20029;-73
2022/08/15 08:43:03;;;;;;;16.00;6.50;;;;;;;24.61;57.02;100321.69;5029890;28;20033;-73
2022/08/15 08:45:42;;;;;;;10.30;5.65;;;;;;;24.49;57.22;100319.19;5034272;28;20424;-73
2022/08/15 08:48:47;;;;;;;11.85;6.13;;;;;;;24.41;57.57;100311.03;5034815;28;20037;-73
2022/08/15 08:51:30;;;;;;;9.73;6.72;;;;;;;24.22;57.72;100326.94;5029747;28;20025;-73
2022/08/15 08:54:05;;;;;;;10.10;5.97;;;;;;;24.04;58.34;100308.97;5030925;28;20037;-73
2022/08/15 08:56:37;;;;;;;10.13;6.95;;;;;;;23.99;58.12;100315.66;5033588;28;20381;-73
2022/08/15 08:59:41;;;;;;;12.23;6.00;;;;;;;23.96;58.92;100323.91;5031511;28;20040;-73
2022/08/15 09:02:27;;;;;;;10.45;6.40;;;;;;;23.97;58.36;100325.59;5034214;28;20118;-73
2022/08/15 09:04:59;;;;;;;19.15;7.55;;;;;;;23.89;59.59;100333.41;5022045;28;20033;-73
2022/08/15 09:07:30;;;;;;;79.82;12.50;;;;;;;23.93;59.22;100332.16;5031865;28;20151;-73
2022/08/15 09:09:58;;;;;;;180.25;19.33;;;;;;;23.94;59.44;100342.69;5022441;28;20093;-73
2022/08/15 09:15:17;;;;;;;75.43;12.05;;;;;;;24.01;59.73;100343.84;5034304;28;20036;-73
2022/08/15 09:17:47;;;;;;;15.32;6.63;;;;;;;24.22;60.27;100342.91;5030500;28;20033;-73
2022/08/15 09:20:16;;;;;;;10.63;6.50;;;;;;;24.41;57.91;100343.00;5032904;28;20619;-73
2022/08/15 09:22:41;;;;;;;13.32;6.75;;;;;;;24.70;56.84;100348.38;5036166;28;20029;-73
2022/08/15 09:25:08;;;;;;;10.77;6.10;;;;;;;24.91;56.77;100348.22;5032307;28;20032;-72
2022/08/15 09:27:52;;;;;;;9.20;6.30;;;;;;;25.16;56.94;100343.34;5031834;28;20026;-73
2022/08/15 09:30:18;;;;;;;97.78;11.63;;;;;;;25.19;55.47;100340.38;5023980;28;20469;-73
2022/08/15 09:33:12;;;;;;;211.02;19.95;;;;;;;25.28;55.91;100344.88;5033521;28;20476;-72
2022/08/15 09:35:50;;;;;;;29.50;6.88;;;;;;;25.33;56.56;100344.44;5024642;28;20025;-73
2022/08/15 09:38:40;;;;;;;11.82;6.32;;;;;;;25.42;56.23;100332.91;5034007;28;20040;-74
2022/08/15 09:41:51;;;;;;;32.05;7.05;;;;;;;25.51;56.34;100349.88;5036490;28;20033;-73
2022/08/15 09:44:35;;;;;;;57.72;10.10;;;;;;;25.74;55.22;100351.22;5040886;28;20485;-73
2022/08/15 09:47:39;;;;;;;14.68;7.22;;;;;;;26.13;55.23;100340.41;5036058;28;20052;-73
2022/08/15 09:50:32;;;;;;;10.23;5.72;;;;;;;26.49;54.15;100346.69;5025881;28;20459;-73
2022/08/15 09:53:07;;;;;;;;;;;;;;;26.78;53.22;100341.13;5022374;28;20036;-73
2022/08/15 09:55:44;;;;;;;12.27;6.45;;;;;;;26.57;53.08;100343.25;5034252;28;20331;-73
2022/08/15 09:58:25;;;;;;;10.02;6.32;;;;;;;26.61;53.54;100334.75;5033001;28;20025;-73
2022/08/15 10:01:07;;;;;;;20.88;7.72;;;;;;;26.77;52.57;100347.44;5032055;28;20033;-73
2022/08/15 10:03:45;;;;;;;9.10;6.20;;;;;;;26.95;52.59;100347.47;5035154;28;20095;-73
2022/08/15 10:06:13;;;;;;;10.27;6.13;;;;;;;26.85;52.88;100328.81;5033856;28;20033;-73
2022/08/15 10:08:51;;;;;;;8.32;6.18;;;;;;;26.92;51.87;100338.91;5031916;28;20034;-73
2022/08/15 10:11:30;;;;;;;7.80;6.60;;;;;;;26.73;53.13;100338.06;5032485;28;20048;-73
2022/08/15 10:14:06;;;;;;;112.97;13.95;;;;;;;26.85;52.55;100327.97;5030527;28;20026;-73
2022/08/15 10:16:39;;;;;;;17.70;7.57;;;;;;;27.13;50.88;100336.75;5026236;28;20095;-73
2022/08/15 10:19:09;;;;;;;7.25;6.32;;;;;;;27.16;51.29;100333.78;5032851;28;20037;-73
2022/08/15 10:21:40;;;;;;;8.93;5.82;;;;;;;27.14;51.75;100341.13;5031276;28;20060;-73
2022/08/15 10:24:21;;;;;;;9.63;6.18;;;;;;;27.02;51.65;100336.97;5032472;28;20030;-73
2022/08/15 10:27:07;;;;;;;29.42;7.80;;;;;;;26.89;52.89;100333.88;5045146;28;20484;-73
2022/08/15 10:29:34;;;;;;;14.52;6.88;;;;;;;26.88;50.69;100338.38;5031140;28;20029;-73
2022/08/15 10:32:02;;;;;;;33.50;8.40;;;;;;;26.77;51.71;100343.94;5033694;28;20053;-73
2022/08/15 10:34:35;;;;;;;26.15;7.72;;;;;;;26.68;52.30;100345.69;5030051;28;20112;-73
2022/08/15 10:37:17;;;;;;;13.55;6.63;;;;;;;26.67;51.55;100343.19;5032900;28;20030;-73
2022/08/15 10:40:02;;;;;;;8.85;6.50;;;;;;;26.61;52.45;100349.97;5032138;28;20481;-73
2022/08/15 10:42:50;;;;;;;10.18;7.00;;;;;;;26.46;52.00;100352.31;5031522;28;20024;-74
2022/08/15 10:45:27;;;;;;;10.95;6.00;;;;;;;26.20;53.42;100357.50;5030811;28;20080;-73
2022/08/15 10:48:14;;;;;;;13.43;6.72;;;;;;;26.10;54.51;100357.56;5032201;28;20036;-73
2022/08/15 10:50:53;;;;;;;20.27;6.50;;;;;;;26.11;53.92;100361.06;5032087;28;20049;-73
2022/08/15 10:53:39;;;;;;;13.05;7.03;;;;;;;26.03;53.71;100356.47;5031136;28;20049;-73
2022/08/15 10:56:13;;;;;;;61.97;8.77;;;;;;;26.01;54.27;100357.59;5032364;28;20029;-73
2022/08/15 10:58:39;;;;;;;11.02;6.50;;;;;;;25.90;54.15;100359.47;5034832;28;20029;-73
2022/08/15 11:01:20;;;;;;;11.50;6.28;;;;;;;25.86;53.57;100363.41;5030554;28;20029;-73
2022/08/15 11:03:58;;;;;;;10.43;6.43;;;;;;;25.69;55.23;100364.16;5031906;28;20028;-73
2022/08/15 11:06:24;;;;;;;11.10;6.53;;;;;;;25.63;55.10;100367.41;5027314;28;20091;-73
2022/08/15 11:08:50;;;;;;;7.82;6.38;;;;;;;25.58;55.57;100359.00;5031701;28;20461;-72
2022/08/15 11:11:19;;;;;;;8.75;6.25;;;;;;;25.56;55.48;100368.97;5028905;28;20038;-72
2022/08/15 11:13:52;;;;;;;10.40;6.63;;;;;;;25.57;54.75;100362.63;5030755;28;20041;-72
2022/08/15 11:16:29;;;;;;;9.48;6.20;;;;;;;25.55;55.84;100361.94;5040121;28;20484;-72
2022/08/15 11:18:56;;;;;;;12.32;6.82;;;;;;;25.47;56.47;100359.97;5031197;28;20039;-72
2022/08/15 11:21:42;;;;;;;12.48;6.55;;;;;;;25.49;55.80;100359.84;5044651;28;20025;-72
2022/08/15 11:24:09;;;;;;;8.73;6.65;;;;;;;25.49;55.01;100358.03;5031782;28;20022;-73
2022/08/15 11:26:39;;;;;;;10.55;5.88;;;;;;;25.52;55.87;100354.22;5030611;28;20502;-72
2022/08/15 11:29:15;;;;;;;11.80;6.50;;;;;;;25.66;55.07;100359.94;5030506;28;20492;-72
2022/08/15 11:31:47;;;;;;;11.15;6.32;;;;;;;25.75;54.45;100344.03;5031132;28;20511;-72
2022/08/15 11:34:36;;;;;;;9.00;6.38;;;;;;;25.88;54.39;100339.25;5031179;28;20485;-72
2022/08/15 11:37:21;;;;;;;8.07;5.70;;;;;;;26.20;54.75;100357.50;5031471;28;20477;-72
2022/08/15 11:39:58;;;;;;;18.17;6.60;;;;;;;26.34;53.02;100356.16;5030252;28;20547;-72
2022/08/15 11:42:27;;;;;;;9.50;6.22;;;;;;;26.65;52.95;100359.38;5041837;28;20539;-72
2022/08/15 11:45:07;;;;;;;12.85;5.90;;;;;;;26.86;53.84;100361.75;5031809;28;20167;-72
2022/08/15 11:47:35;;;;;;;11.57;6.85;;;;;;;26.95;50.40;100347.47;5030033;28;20022;-72
2022/08/15 11:50:05;;;;;;;11.43;6.85;;;;;;;27.02;51.17;100361.91;5036429;28;20029;-71
2022/08/15 11:52:46;;;;;;;10.75;6.45;;;;;;;27.01;52.38;100359.34;5030197;28;20540;-72